createdAt,value
2017-09-29T00:00:51.348Z,24.20
2017-09-29T00:03:19.970Z,23.70
2017-09-29T00:05:47.532Z,25.33
2017-09-29T00:08:15.895Z,24.33
2017-09-29T00:10:43.470Z,25.60
2017-09-29T00:13:11.111Z,25.20
2017-09-29T00:15:38.723Z,24.30
2017-09-29T00:18:07.100Z,25.13
2017-09-29T00:20:35.450Z,24.40
2017-09-29T00:23:03.056Z,25.67
2017-09-29T00:25:31.398Z,24.63
2017-09-29T00:27:59.021Z,23.97
2017-09-29T00:30:26.619Z,24.27
2017-09-29T00:32:54.222Z,23.10
2017-09-29T00:35:21.820Z,20.30
2017-09-29T00:37:49.382Z,20.23
2017-09-29T00:40:17.040Z,20.27
2017-09-29T00:42:44.703Z,18.63
2017-09-29T00:45:12.357Z,17.63
2017-09-29T00:47:40.755Z,17.40
2017-09-29T00:50:08.347Z,19.17
2017-09-29T00:52:35.981Z,15.80
2017-09-29T00:55:04.313Z,17.50
2017-09-29T00:57:31.867Z,16.80
2017-09-29T00:59:59.499Z,18.50
2017-09-29T01:02:27.084Z,18.97
2017-09-29T01:04:54.711Z,18.43
2017-09-29T01:07:23.059Z,18.10
2017-09-29T01:09:52.239Z,18.77
2017-09-29T01:12:19.842Z,18.97
2017-09-29T01:14:47.497Z,19.20
2017-09-29T01:17:15.066Z,20.90
2017-09-29T01:19:42.681Z,20.13
2017-09-29T01:22:10.193Z,25.77
2017-09-29T01:24:37.760Z,21.37
2017-09-29T01:27:05.345Z,19.20
2017-09-29T01:29:32.917Z,19.03
2017-09-29T01:32:01.250Z,17.33
2017-09-29T01:34:28.864Z,16.80
2017-09-29T01:36:57.201Z,15.90
2017-09-29T01:39:24.811Z,16.73
2017-09-29T01:41:53.213Z,16.93
2017-09-29T01:44:21.577Z,19.90
2017-09-29T01:46:49.932Z,19.70
2017-09-29T01:49:17.498Z,18.80
2017-09-29T01:51:45.053Z,18.43
2017-09-29T01:54:12.677Z,18.87
2017-09-29T01:56:40.991Z,17.20
2017-09-29T01:59:08.557Z,18.00
2017-09-29T02:01:37.132Z,15.80
2017-09-29T02:04:04.672Z,17.97
2017-09-29T02:06:33.032Z,17.43
2017-09-29T02:09:00.606Z,17.90
2017-09-29T02:11:28.948Z,17.57
2017-09-29T02:13:56.522Z,16.57
2017-09-29T02:16:24.142Z,17.57
2017-09-29T02:18:51.706Z,14.20
2017-09-29T02:21:19.256Z,14.53
2017-09-29T02:23:48.646Z,15.00
2017-09-29T02:26:17.042Z,15.30
2017-09-29T02:28:45.372Z,17.47
2017-09-29T02:31:13.012Z,16.30
2017-09-29T02:33:40.573Z,15.83
2017-09-29T02:36:08.150Z,16.70
2017-09-29T02:38:35.719Z,15.33
2017-09-29T02:41:03.302Z,15.30
2017-09-29T02:43:30.919Z,15.47
2017-09-29T02:45:59.250Z,14.47
2017-09-29T02:48:26.913Z,15.53
2017-09-29T02:50:54.517Z,15.07
2017-09-29T02:53:22.851Z,13.97
2017-09-29T02:55:50.444Z,14.60
2017-09-29T02:58:18.662Z,15.20
2017-09-29T03:00:49.604Z,14.80
2017-09-29T03:03:20.445Z,15.10
2017-09-29T03:05:56.412Z,15.50
2017-09-29T03:08:23.998Z,14.83
2017-09-29T03:10:51.570Z,14.80
2017-09-29T03:13:19.332Z,14.00
2017-09-29T03:15:46.912Z,16.37
2017-09-29T03:18:14.504Z,15.17
2017-09-29T03:20:42.225Z,16.03
2017-09-29T03:23:09.813Z,14.03
2017-09-29T03:25:37.386Z,14.90
2017-09-29T03:28:04.987Z,16.07
2017-09-29T03:30:32.680Z,15.57
2017-09-29T03:33:01.061Z,12.83
2017-09-29T03:35:29.430Z,13.73
2017-09-29T03:37:56.984Z,14.63
2017-09-29T03:40:25.363Z,14.40
2017-09-29T03:42:53.686Z,15.10
2017-09-29T03:45:21.249Z,15.50
2017-09-29T03:47:50.689Z,14.80
2017-09-29T03:50:19.412Z,15.87
2017-09-29T03:52:48.329Z,14.93
2017-09-29T03:55:16.923Z,15.40
2017-09-29T03:57:45.443Z,17.43
2017-09-29T04:00:13.037Z,17.03
2017-09-29T04:02:41.356Z,16.87
2017-09-29T04:05:08.894Z,17.87
2017-09-29T04:07:36.474Z,16.53
2017-09-29T04:10:04.085Z,16.10
2017-09-29T04:12:31.628Z,16.40
2017-09-29T04:14:59.207Z,15.77
2017-09-29T04:17:26.791Z,17.17
2017-09-29T04:19:54.344Z,16.50
2017-09-29T04:22:21.960Z,16.33
2017-09-29T04:24:49.540Z,15.10
2017-09-29T04:27:17.113Z,17.00
2017-09-29T04:29:44.704Z,16.10
2017-09-29T04:32:12.262Z,14.23
2017-09-29T04:34:39.840Z,14.77
2017-09-29T04:37:07.431Z,14.37
2017-09-29T04:39:35.757Z,15.90
2017-09-29T04:42:03.355Z,13.37
2017-09-29T04:44:30.935Z,12.67
2017-09-29T04:46:59.240Z,13.97
2017-09-29T04:49:27.571Z,14.20
2017-09-29T04:51:55.147Z,14.17
2017-09-29T04:54:22.855Z,12.77
2017-09-29T04:56:50.439Z,13.10
2017-09-29T04:59:18.031Z,12.40
2017-09-29T05:01:45.602Z,14.43
2017-09-29T05:04:13.144Z,12.67
2017-09-29T05:06:40.719Z,13.87
2017-09-29T05:09:08.280Z,14.70
2017-09-29T05:11:35.852Z,15.23
2017-09-29T05:14:03.394Z,14.23
2017-09-29T05:16:30.941Z,17.40
2017-09-29T05:18:58.527Z,15.53
2017-09-29T05:21:26.085Z,14.87
2017-09-29T05:23:53.630Z,17.97
2017-09-29T05:26:21.225Z,15.27
2017-09-29T05:28:48.805Z,14.00
2017-09-29T05:31:16.380Z,13.27
2017-09-29T05:33:43.950Z,13.53
2017-09-29T05:36:11.546Z,13.43
2017-09-29T05:38:39.095Z,15.00
2017-09-29T05:41:07.484Z,14.77
2017-09-29T05:43:35.810Z,13.70
2017-09-29T05:46:04.931Z,13.50
2017-09-29T05:48:32.563Z,11.80
2017-09-29T05:51:00.120Z,12.33
2017-09-29T05:53:27.757Z,12.27
2017-09-29T05:55:55.337Z,12.30
2017-09-29T05:58:23.644Z,12.17
2017-09-29T06:00:51.196Z,11.00
2017-09-29T06:03:18.736Z,12.17
2017-09-29T06:05:47.029Z,11.00
2017-09-29T06:08:15.360Z,11.53
2017-09-29T06:10:42.944Z,10.37
2017-09-29T06:13:10.519Z,12.17
2017-09-29T06:15:38.896Z,10.90
2017-09-29T06:18:06.435Z,11.37
2017-09-29T06:20:34.014Z,11.73
2017-09-29T06:23:01.549Z,11.70
2017-09-29T06:25:30.426Z,11.17
2017-09-29T06:27:58.044Z,12.80
2017-09-29T06:30:25.790Z,11.37
2017-09-29T06:32:54.152Z,11.10
2017-09-29T06:35:21.712Z,12.43
2017-09-29T06:37:49.281Z,10.93
2017-09-29T06:40:16.868Z,10.97
2017-09-29T06:43:06.649Z,11.90
2017-09-29T06:45:35.205Z,10.00
2017-09-29T06:48:02.768Z,10.93
2017-09-29T06:50:30.296Z,11.27
2017-09-29T06:52:58.626Z,9.97
2017-09-29T06:55:26.192Z,11.30
2017-09-29T06:57:53.747Z,10.10
2017-09-29T07:00:21.333Z,9.93
2017-09-29T07:02:48.884Z,9.10
2017-09-29T07:05:16.442Z,10.47
2017-09-29T07:07:43.999Z,10.07
2017-09-29T07:10:11.552Z,8.93
2017-09-29T07:12:39.085Z,9.57
2017-09-29T07:15:06.650Z,9.70
2017-09-29T07:17:34.973Z,9.00
2017-09-29T07:20:02.653Z,9.10
2017-09-29T07:22:30.213Z,8.80
2017-09-29T07:24:58.403Z,7.70
2017-09-29T07:27:28.731Z,9.20
2017-09-29T07:29:56.807Z,9.73
2017-09-29T07:32:24.958Z,9.70
2017-09-29T07:34:52.525Z,9.50
2017-09-29T07:37:20.075Z,9.50
2017-09-29T07:39:48.378Z,9.97
2017-09-29T07:42:16.715Z,10.23
2017-09-29T07:44:44.299Z,9.57
2017-09-29T07:47:12.653Z,9.10
2017-09-29T07:49:40.209Z,8.47
2017-09-29T07:52:07.781Z,9.20
2017-09-29T07:54:35.325Z,9.67
2017-09-29T07:57:02.867Z,9.13
2017-09-29T07:59:30.406Z,10.20
2017-09-29T08:01:58.725Z,10.30
2017-09-29T08:04:26.272Z,11.60
2017-09-29T08:06:53.852Z,11.50
2017-09-29T08:09:21.404Z,10.33
2017-09-29T08:11:48.955Z,11.07
2017-09-29T08:14:17.262Z,11.30
2017-09-29T08:16:44.791Z,10.20
2017-09-29T08:19:13.124Z,9.77
2017-09-29T08:21:40.659Z,9.93
2017-09-29T08:24:08.223Z,9.93
2017-09-29T08:26:35.777Z,10.40
2017-09-29T08:29:04.069Z,9.87
2017-09-29T08:31:31.616Z,9.70
2017-09-29T08:33:59.905Z,9.50
2017-09-29T08:36:27.516Z,9.70
2017-09-29T08:38:55.065Z,9.93
2017-09-29T08:41:22.616Z,9.17
2017-09-29T08:43:50.210Z,11.10
2017-09-29T08:46:17.794Z,9.40
2017-09-29T08:48:45.394Z,9.80
2017-09-29T08:51:13.815Z,9.37
2017-09-29T08:53:41.349Z,10.03
2017-09-29T08:56:08.911Z,10.00
2017-09-29T08:58:36.456Z,9.53
2017-09-29T09:01:04.763Z,9.63
2017-09-29T09:03:33.336Z,9.07
2017-09-29T09:06:01.662Z,8.63
2017-09-29T09:08:29.195Z,8.47
2017-09-29T09:10:56.739Z,8.50
2017-09-29T09:13:25.064Z,9.57
2017-09-29T09:15:52.623Z,9.17
2017-09-29T09:18:20.145Z,9.23
2017-09-29T09:20:48.464Z,10.50
2017-09-29T09:23:16.030Z,9.37
2017-09-29T09:25:43.563Z,9.23
2017-09-29T09:28:11.891Z,10.30
2017-09-29T09:30:39.452Z,10.60
2017-09-29T09:33:07.022Z,11.53
2017-09-29T09:35:34.576Z,10.93
2017-09-29T09:38:02.123Z,12.03
2017-09-29T09:40:29.692Z,12.83
2017-09-29T09:42:57.256Z,12.93
2017-09-29T09:45:24.816Z,11.37
2017-09-29T09:47:52.349Z,11.73
2017-09-29T09:50:19.932Z,11.70
2017-09-29T09:52:47.488Z,10.97
2017-09-29T09:55:15.785Z,11.20
2017-09-29T09:57:45.091Z,11.93
2017-09-29T10:00:12.644Z,11.80
2017-09-29T10:02:40.180Z,12.60
2017-09-29T10:05:07.745Z,12.17
2017-09-29T10:07:35.309Z,11.90
2017-09-29T10:10:03.916Z,11.80
2017-09-29T10:12:32.268Z,11.27
2017-09-29T10:14:59.833Z,10.10
2017-09-29T10:17:27.406Z,11.40
2017-09-29T10:19:54.971Z,11.70
2017-09-29T10:22:22.550Z,11.70
2017-09-29T10:24:50.112Z,11.90
2017-09-29T10:27:18.464Z,11.80
2017-09-29T10:29:46.008Z,11.53
2017-09-29T10:32:13.538Z,11.43
2017-09-29T10:34:41.859Z,11.93
2017-09-29T10:37:09.448Z,10.97
2017-09-29T10:39:37.000Z,11.50
2017-09-29T10:42:04.527Z,13.30
2017-09-29T10:44:32.087Z,11.83
2017-09-29T10:47:00.416Z,11.90
2017-09-29T10:49:28.008Z,10.60
2017-09-29T10:51:55.579Z,10.00
2017-09-29T10:54:23.918Z,11.80
2017-09-29T10:56:51.472Z,10.70
2017-09-29T10:59:19.040Z,10.40
2017-09-29T11:01:46.623Z,11.17
2017-09-29T11:04:14.170Z,11.17
2017-09-29T11:06:41.750Z,10.23
2017-09-29T11:09:09.321Z,9.77
2017-09-29T11:11:36.877Z,11.10
2017-09-29T11:14:04.421Z,10.20
2017-09-29T11:16:31.993Z,10.83
2017-09-29T11:18:59.507Z,11.10
2017-09-29T11:21:27.089Z,9.60
2017-09-29T11:23:55.437Z,10.67
2017-09-29T11:26:22.991Z,10.60
2017-09-29T11:28:51.594Z,11.20
2017-09-29T11:31:19.994Z,12.00
2017-09-29T11:33:48.303Z,10.90
2017-09-29T11:36:15.875Z,11.57
2017-09-29T11:38:43.443Z,11.37
2017-09-29T11:41:11.042Z,10.33
2017-09-29T11:43:38.610Z,9.87
2017-09-29T11:46:06.175Z,10.63
2017-09-29T11:48:33.760Z,10.97
2017-09-29T11:51:02.096Z,11.20
2017-09-29T11:53:29.715Z,9.80
2017-09-29T11:55:58.035Z,10.80
2017-09-29T11:58:25.614Z,10.50
2017-09-29T12:00:53.165Z,11.67
2017-09-29T12:03:20.707Z,10.30
2017-09-29T12:05:48.235Z,8.83
2017-09-29T12:08:15.826Z,10.17
2017-09-29T12:10:44.124Z,10.70
2017-09-29T12:13:11.660Z,9.90
2017-09-29T12:15:39.985Z,11.57
2017-09-29T12:18:07.550Z,12.00
2017-09-29T12:20:35.115Z,12.43
2017-09-29T12:23:02.719Z,10.60
2017-09-29T12:25:30.281Z,10.33
2017-09-29T12:27:57.836Z,11.60
2017-09-29T12:30:25.378Z,9.80
2017-09-29T12:32:52.997Z,11.17
2017-09-29T12:35:20.678Z,11.80
2017-09-29T12:37:49.008Z,10.73
2017-09-29T12:40:16.568Z,11.20
2017-09-29T12:42:44.161Z,9.93
2017-09-29T12:47:38.420Z,8.93
2017-09-29T12:50:06.005Z,8.47
2017-09-29T12:52:34.351Z,9.53
2017-09-29T12:55:02.666Z,8.50
2017-09-29T12:57:30.312Z,8.40
2017-09-29T12:59:57.837Z,9.27
2017-09-29T13:02:25.400Z,8.40
2017-09-29T13:04:53.016Z,7.97
2017-09-29T13:07:20.557Z,9.43
2017-09-29T13:09:48.843Z,10.70
2017-09-29T13:12:16.385Z,8.60
2017-09-29T13:14:43.929Z,8.40
2017-09-29T13:17:15.403Z,7.70
2017-09-29T13:19:43.148Z,9.87
2017-09-29T13:22:10.696Z,8.77
2017-09-29T13:24:38.226Z,9.00
2017-09-29T13:27:05.800Z,9.73
2017-09-29T13:29:33.345Z,9.23
2017-09-29T13:32:01.638Z,8.30
2017-09-29T13:34:29.230Z,9.03
2017-09-29T13:36:56.813Z,10.77
2017-09-29T13:39:24.399Z,9.33
2017-09-29T13:41:52.708Z,9.87
2017-09-29T13:44:20.271Z,10.00
2017-09-29T13:46:48.576Z,10.30
2017-09-29T13:49:16.184Z,10.80
2017-09-29T13:51:44.780Z,10.00
2017-09-29T13:54:13.094Z,9.47
2017-09-29T13:56:40.632Z,10.17
2017-09-29T13:59:08.985Z,10.40
2017-09-29T14:01:36.542Z,9.50
2017-09-29T14:04:04.147Z,11.23
2017-09-29T14:06:32.473Z,10.00
2017-09-29T14:09:00.011Z,11.43
2017-09-29T14:11:28.334Z,11.30
2017-09-29T14:13:55.890Z,11.70
2017-09-29T14:16:23.449Z,12.53
2017-09-29T14:18:50.994Z,14.80
2017-09-29T14:21:18.553Z,11.33
2017-09-29T14:23:46.090Z,11.87
2017-09-29T14:26:14.396Z,12.50
2017-09-29T14:28:42.710Z,12.37
2017-09-29T14:31:10.261Z,13.10
2017-09-29T14:33:37.847Z,12.77
2017-09-29T14:36:26.509Z,13.03
2017-09-29T14:38:54.141Z,12.93
2017-09-29T14:41:21.722Z,11.90
2017-09-29T14:43:49.360Z,12.47
2017-09-29T14:46:16.898Z,13.83
2017-09-29T14:48:45.223Z,12.80
2017-09-29T14:51:12.789Z,13.10
2017-09-29T14:53:40.341Z,12.30
2017-09-29T14:56:07.899Z,12.97
2017-09-29T14:58:35.467Z,12.30
2017-09-29T15:01:02.997Z,12.60
2017-09-29T15:03:31.323Z,12.90
2017-09-29T15:05:58.911Z,10.50
2017-09-29T15:08:26.462Z,13.20
2017-09-29T15:10:54.039Z,16.83
2017-09-29T15:13:21.580Z,14.90
2017-09-29T15:15:49.148Z,15.00
2017-09-29T15:18:16.715Z,14.40
2017-09-29T15:20:44.233Z,13.57
2017-09-29T15:23:12.545Z,14.13
2017-09-29T15:25:40.183Z,13.87
2017-09-29T15:28:08.517Z,14.37
2017-09-29T15:30:36.061Z,14.30
2017-09-29T15:33:03.881Z,15.57
2017-09-29T15:35:31.631Z,13.83
2017-09-29T15:37:59.168Z,14.70
2017-09-29T15:40:26.769Z,15.53
2017-09-29T15:42:54.353Z,15.40
2017-09-29T15:45:22.690Z,14.57
2017-09-29T15:47:50.281Z,15.10
2017-09-29T15:50:17.830Z,14.50
2017-09-29T15:52:45.436Z,13.80
2017-09-29T15:55:19.690Z,13.13
2017-09-29T15:57:52.435Z,14.13
2017-09-29T16:00:24.035Z,13.23
2017-09-29T16:02:56.900Z,13.60
2017-09-29T16:05:29.064Z,13.30
2017-09-29T16:08:00.953Z,15.17
2017-09-29T16:10:42.097Z,13.93
2017-09-29T16:13:14.347Z,13.40
2017-09-29T16:15:46.755Z,13.97
2017-09-29T16:18:22.928Z,12.53
2017-09-29T16:20:54.019Z,13.03
2017-09-29T16:23:22.398Z,12.43
2017-09-29T16:25:50.214Z,12.93
2017-09-29T16:28:17.768Z,12.93
2017-09-29T16:30:46.108Z,17.60
2017-09-29T16:33:13.639Z,17.00
2017-09-29T16:35:41.200Z,14.20
2017-09-29T16:38:08.750Z,14.20
2017-09-29T16:40:37.168Z,15.70
2017-09-29T16:43:05.452Z,14.63
2017-09-29T16:45:33.613Z,14.87
2017-09-29T16:48:01.234Z,23.53
2017-09-29T16:50:28.816Z,18.97
2017-09-29T16:52:57.157Z,48.70
2017-09-29T16:55:24.743Z,27.60
2017-09-29T16:57:53.220Z,21.20
2017-09-29T17:00:21.594Z,19.87
2017-09-29T17:02:49.145Z,17.30
2017-09-29T17:05:16.709Z,17.10
2017-09-29T17:07:44.286Z,17.17
2017-09-29T17:10:11.843Z,17.13
2017-09-29T17:12:40.169Z,18.67
2017-09-29T17:15:08.587Z,17.73
2017-09-29T17:17:36.196Z,18.57
2017-09-29T17:20:03.771Z,20.50
2017-09-29T17:22:31.300Z,19.90
2017-09-29T17:24:59.910Z,20.93
2017-09-29T17:27:27.451Z,20.60
2017-09-29T17:29:55.003Z,18.27
2017-09-29T17:32:22.580Z,18.47
2017-09-29T17:34:50.175Z,19.20
2017-09-29T17:37:18.503Z,19.57
2017-09-29T17:39:47.106Z,16.93
2017-09-29T17:42:14.675Z,16.27
2017-09-29T17:44:42.242Z,17.70
2017-09-29T17:47:09.847Z,17.30
2017-09-29T17:49:37.406Z,18.83
2017-09-29T17:52:05.925Z,17.47
2017-09-29T17:54:33.690Z,16.77
2017-09-29T17:57:01.251Z,18.67
2017-09-29T17:59:29.570Z,18.90
2017-09-29T18:01:57.181Z,18.70
2017-09-29T18:04:25.514Z,18.87
2017-09-29T18:06:53.125Z,18.03
2017-09-29T18:09:21.453Z,18.57
2017-09-29T18:11:49.023Z,16.73
2017-09-29T18:14:16.685Z,17.57
2017-09-29T18:16:44.568Z,18.03
2017-09-29T18:19:13.677Z,17.70
2017-09-29T18:21:41.776Z,18.33
2017-09-29T18:24:10.425Z,19.53
2017-09-29T18:26:38.046Z,17.67
2017-09-29T18:29:05.625Z,17.37
2017-09-29T18:31:33.470Z,17.63
2017-09-29T18:34:03.076Z,16.37
2017-09-29T18:36:30.901Z,16.83
2017-09-29T18:38:59.761Z,18.53
2017-09-29T18:41:28.753Z,19.57
2017-09-29T18:44:12.455Z,18.97
2017-09-29T18:46:41.576Z,19.20
2017-09-29T18:49:09.467Z,17.20
2017-09-29T18:51:37.263Z,16.67
2017-09-29T18:54:06.019Z,18.33
2017-09-29T18:56:33.631Z,18.43
2017-09-29T18:59:01.189Z,18.90
2017-09-29T19:01:29.857Z,20.33
2017-09-29T19:03:58.244Z,20.67
2017-09-29T19:06:25.859Z,22.83
2017-09-29T19:08:53.403Z,19.00
2017-09-29T19:11:21.030Z,20.20
2017-09-29T19:13:49.345Z,20.30
2017-09-29T19:16:16.892Z,19.17
2017-09-29T19:18:44.540Z,21.47
2017-09-29T19:21:13.864Z,20.23
2017-09-29T19:23:48.770Z,19.17
2017-09-29T19:26:17.285Z,21.50
2017-09-29T19:28:44.888Z,19.80
2017-09-29T19:31:16.523Z,24.57
2017-09-29T19:33:45.706Z,22.33
2017-09-29T19:36:25.527Z,20.70
2017-09-29T19:38:53.691Z,19.60
2017-09-29T19:41:21.300Z,19.97
2017-09-29T19:43:48.952Z,21.80
2017-09-29T19:46:16.949Z,22.00
2017-09-29T19:48:45.588Z,20.77
2017-09-29T19:51:14.379Z,21.40
2017-09-29T19:53:44.010Z,22.33
2017-09-29T19:56:12.364Z,23.53
2017-09-29T19:58:40.128Z,22.07
2017-09-29T20:01:07.889Z,26.17
2017-09-29T20:03:35.815Z,27.60
2017-09-29T20:06:03.569Z,23.80
2017-09-29T20:08:31.283Z,23.10
2017-09-29T20:10:58.914Z,22.87
2017-09-29T20:13:27.468Z,22.90
2017-09-29T20:15:56.111Z,23.57
2017-09-29T20:18:23.895Z,23.70
2017-09-29T20:20:51.804Z,20.90
2017-09-29T20:23:20.164Z,22.07
2017-09-29T20:25:51.034Z,20.57
2017-09-29T20:28:21.884Z,20.50
2017-09-29T20:30:52.522Z,20.10
2017-09-29T20:33:21.619Z,19.10
2017-09-29T20:38:34.212Z,19.33
2017-09-29T20:41:03.701Z,20.40
2017-09-29T20:43:32.421Z,19.47
2017-09-29T20:46:00.191Z,20.23
2017-09-29T20:48:27.838Z,18.90
2017-09-29T20:50:55.476Z,19.30
2017-09-29T20:53:23.032Z,19.40
2017-09-29T20:55:50.663Z,17.67
2017-09-29T20:58:18.470Z,19.37
2017-09-29T21:00:46.188Z,19.07
2017-09-29T21:03:13.844Z,20.27
2017-09-29T21:05:41.760Z,22.07
2017-09-29T21:08:10.156Z,20.17
2017-09-29T21:10:37.694Z,21.10
2017-09-29T21:13:05.295Z,23.97
2017-09-29T21:15:32.856Z,22.17
2017-09-29T21:18:00.837Z,21.60
2017-09-29T21:20:28.956Z,20.20
2017-09-29T21:22:56.702Z,20.57
2017-09-29T21:25:24.405Z,20.43
2017-09-29T21:27:52.747Z,18.50
2017-09-29T21:30:21.353Z,18.87
2017-09-29T21:35:55.802Z,16.60
2017-09-29T21:38:23.395Z,16.63
2017-09-29T21:40:51.756Z,18.47
2017-09-29T21:43:19.763Z,21.60
2017-09-29T21:45:48.855Z,22.40
2017-09-29T21:48:16.490Z,24.47
2017-09-29T21:50:45.873Z,23.33
2017-09-29T21:53:13.439Z,22.40
2017-09-29T21:55:41.003Z,23.40
2017-09-29T21:58:08.558Z,23.37
2017-09-29T22:00:36.374Z,24.97
2017-09-29T22:03:04.768Z,23.40
2017-09-29T22:05:33.224Z,22.70
2017-09-29T22:08:00.834Z,21.93
2017-09-29T22:10:28.418Z,22.57
2017-09-29T22:12:56.000Z,24.10
2017-09-29T22:15:23.559Z,24.20
2017-09-29T22:17:51.097Z,24.73
2017-09-29T22:20:18.684Z,25.40
2017-09-29T22:22:46.245Z,22.60
2017-09-29T22:25:13.803Z,25.30
2017-09-29T22:27:41.387Z,22.90
2017-09-29T22:30:08.945Z,21.20
2017-09-29T22:32:36.553Z,23.77
2017-09-29T22:35:04.941Z,22.50
2017-09-29T22:37:33.292Z,18.63
2017-09-29T22:40:01.511Z,21.67
2017-09-29T22:42:29.912Z,22.80
2017-09-29T22:44:57.444Z,24.90
2017-09-29T22:47:25.780Z,26.33
2017-09-29T22:49:53.334Z,25.30
2017-09-29T22:52:21.909Z,24.47
2017-09-29T22:54:49.498Z,24.07
2017-09-29T22:57:17.057Z,23.93
2017-09-29T22:59:44.595Z,21.63
2017-09-29T23:02:12.173Z,21.93
2017-09-29T23:04:39.728Z,21.00
2017-09-29T23:07:08.051Z,22.70
2017-09-29T23:09:35.566Z,20.30
2017-09-29T23:12:03.895Z,20.00
2017-09-29T23:14:31.491Z,21.30
2017-09-29T23:16:59.083Z,20.40
2017-09-29T23:19:26.643Z,19.70
2017-09-29T23:21:54.968Z,19.77
2017-09-29T23:24:22.538Z,20.70
2017-09-29T23:26:50.108Z,21.30
2017-09-29T23:29:17.663Z,19.73
2017-09-29T23:31:45.215Z,22.30
2017-09-29T23:34:13.566Z,22.57
2017-09-29T23:36:42.923Z,22.87
2017-09-29T23:39:10.464Z,22.40
2017-09-29T23:41:38.038Z,20.70
2017-09-29T23:44:05.600Z,21.80
2017-09-29T23:46:33.174Z,20.10
2017-09-29T23:49:00.724Z,21.93
2017-09-29T23:51:28.275Z,24.17
2017-09-29T23:53:55.855Z,20.37
2017-09-29T23:56:23.417Z,21.17
2017-09-29T23:58:50.990Z,22.90
